sensor_id;sensor_type;location;lat;lon;timestamp;temperature;humidity
52859;DHT22;38721;53.098;6.596;2022-11-04T00:01:26;12.00;99.90
52859;DHT22;38721;53.098;6.596;2022-11-04T00:03:52;11.90;99.90
52859;DHT22;38721;53.098;6.596;2022-11-04T00:06:18;12.00;99.90
52859;DHT22;38721;53.098;6.596;2022-11-04T00:08:52;12.00;99.90
52859;DHT22;38721;53.098;6.596;2022-11-04T00:11:18;12.00;99.90
52859;DHT22;38721;53.098;6.596;2022-11-04T00:14:04;11.90;99.90
52859;DHT22;38721;53.098;6.596;2022-11-04T00:16:30;11.90;99.90
52859;DHT22;38721;53.098;6.596;2022-11-04T00:19:14;12.00;99.90
52859;DHT22;38721;53.098;6.596;2022-11-04T00:21:40;12.00;99.90
52859;DHT22;38721;53.098;6.596;2022-11-04T00:24:24;11.90;99.90
52859;DHT22;38721;53.098;6.596;2022-11-04T00:27:16;11.90;99.90
52859;DHT22;38721;53.098;6.596;2022-11-04T00:30:01;11.90;99.90
52859;DHT22;38721;53.098;6.596;2022-11-04T00:32:31;12.00;99.90
52859;DHT22;38721;53.098;6.596;2022-11-04T00:35:15;11.90;99.90
52859;DHT22;38721;53.098;6.596;2022-11-04T00:37:42;12.00;99.90
52859;DHT22;38721;53.098;6.596;2022-11-04T00:40:10;11.80;99.90
52859;DHT22;38721;53.098;6.596;2022-11-04T00:42:36;11.90;99.90
52859;DHT22;38721;53.098;6.596;2022-11-04T00:45:02;11.70;99.90
52859;DHT22;38721;53.098;6.596;2022-11-04T00:47:28;11.70;99.90
52859;DHT22;38721;53.098;6.596;2022-11-04T00:49:54;11.60;99.90
52859;DHT22;38721;53.098;6.596;2022-11-04T00:52:20;11.60;99.90
52859;DHT22;38721;53.098;6.596;2022-11-04T00:54:45;11.40;99.90
52859;DHT22;38721;53.098;6.596;2022-11-04T00:57:12;11.40;99.90
52859;DHT22;38721;53.098;6.596;2022-11-04T00:59:40;11.40;99.90
52859;DHT22;38721;53.098;6.596;2022-11-04T01:02:07;11.20;99.90
52859;DHT22;38721;53.098;6.596;2022-11-04T01:04:33;11.30;99.90
52859;DHT22;38721;53.098;6.596;2022-11-04T01:07:00;11.10;99.90
52859;DHT22;38721;53.098;6.596;2022-11-04T01:09:26;11.20;99.90
52859;DHT22;38721;53.098;6.596;2022-11-04T01:11:51;11.20;99.90
52859;DHT22;38721;53.098;6.596;2022-11-04T01:14:17;11.20;99.90
52859;DHT22;38721;53.098;6.596;2022-11-04T01:16:48;11.20;99.90
52859;DHT22;38721;53.098;6.596;2022-11-04T01:19:14;11.10;99.90
52859;DHT22;38721;53.098;6.596;2022-11-04T01:21:40;11.10;99.90
52859;DHT22;38721;53.098;6.596;2022-11-04T01:24:06;11.10;99.90
52859;DHT22;38721;53.098;6.596;2022-11-04T01:26:31;11.00;99.90
52859;DHT22;38721;53.098;6.596;2022-11-04T01:28:58;11.10;99.90
52859;DHT22;38721;53.098;6.596;2022-11-04T01:31:29;11.10;99.90
52859;DHT22;38721;53.098;6.596;2022-11-04T01:33:55;11.10;99.90
52859;DHT22;38721;53.098;6.596;2022-11-04T01:36:22;11.00;99.90
52859;DHT22;38721;53.098;6.596;2022-11-04T01:38:48;11.00;99.90
52859;DHT22;38721;53.098;6.596;2022-11-04T01:41:29;11.10;99.90
52859;DHT22;38721;53.098;6.596;2022-11-04T01:44:03;11.10;99.90
52859;DHT22;38721;53.098;6.596;2022-11-04T01:46:50;11.10;99.90
52859;DHT22;38721;53.098;6.596;2022-11-04T01:49:36;11.10;99.90
52859;DHT22;38721;53.098;6.596;2022-11-04T01:52:15;11.10;99.90
52859;DHT22;38721;53.098;6.596;2022-11-04T01:54:45;11.10;99.90
52859;DHT22;38721;53.098;6.596;2022-11-04T01:57:22;11.20;99.90
52859;DHT22;38721;53.098;6.596;2022-11-04T01:59:49;11.20;99.90
52859;DHT22;38721;53.098;6.596;2022-11-04T02:02:14;11.00;99.90
52859;DHT22;38721;53.098;6.596;2022-11-04T02:04:44;11.00;99.90
52859;DHT22;38721;53.098;6.596;2022-11-04T02:07:11;11.00;99.90
52859;DHT22;38721;53.098;6.596;2022-11-04T02:09:38;11.00;99.90
52859;DHT22;38721;53.098;6.596;2022-11-04T02:12:04;11.00;99.90
52859;DHT22;38721;53.098;6.596;2022-11-04T02:14:51;11.00;99.90
52859;DHT22;38721;53.098;6.596;2022-11-04T02:31:10;11.00;99.90
52859;DHT22;38721;53.098;6.596;2022-11-04T02:36:45;10.90;99.90
52859;DHT22;38721;53.098;6.596;2022-11-04T02:42:35;11.00;99.90
52859;DHT22;38721;53.098;6.596;2022-11-04T02:48:08;11.00;99.90
52859;DHT22;38721;53.098;6.596;2022-11-04T02:50:55;10.90;99.90
52859;DHT22;38721;53.098;6.596;2022-11-04T02:53:34;10.90;99.90
52859;DHT22;38721;53.098;6.596;2022-11-04T02:56:02;10.90;99.90
52859;DHT22;38721;53.098;6.596;2022-11-04T02:58:35;10.90;99.90
52859;DHT22;38721;53.098;6.596;2022-11-04T03:01:04;11.00;99.90
52859;DHT22;38721;53.098;6.596;2022-11-04T03:03:39;10.90;99.90
52859;DHT22;38721;53.098;6.596;2022-11-04T03:06:10;11.00;99.90
52859;DHT22;38721;53.098;6.596;2022-11-04T03:08:44;11.00;99.90
52859;DHT22;38721;53.098;6.596;2022-11-04T03:11:14;10.90;99.90
52859;DHT22;38721;53.098;6.596;2022-11-04T03:13:50;11.00;99.90
52859;DHT22;38721;53.098;6.596;2022-11-04T03:16:46;10.90;99.90
52859;DHT22;38721;53.098;6.596;2022-11-04T03:22:17;11.00;99.90
52859;DHT22;38721;53.098;6.596;2022-11-04T03:24:47;10.90;99.90
52859;DHT22;38721;53.098;6.596;2022-11-04T03:30:10;10.90;99.90
52859;DHT22;38721;53.098;6.596;2022-11-04T03:35:05;11.10;99.90
52859;DHT22;38721;53.098;6.596;2022-11-04T03:37:32;11.00;99.90
52859;DHT22;38721;53.098;6.596;2022-11-04T03:39:58;11.10;99.90
52859;DHT22;38721;53.098;6.596;2022-11-04T03:42:25;11.00;99.90
52859;DHT22;38721;53.098;6.596;2022-11-04T03:44:55;11.00;99.90
52859;DHT22;38721;53.098;6.596;2022-11-04T03:47:25;10.90;99.90
52859;DHT22;38721;53.098;6.596;2022-11-04T03:50:06;10.90;99.90
52859;DHT22;38721;53.098;6.596;2022-11-04T03:52:34;11.00;99.90
52859;DHT22;38721;53.098;6.596;2022-11-04T03:55:01;10.90;99.90
52859;DHT22;38721;53.098;6.596;2022-11-04T03:57:57;10.90;99.90
52859;DHT22;38721;53.098;6.596;2022-11-04T04:00:25;10.90;99.90
52859;DHT22;38721;53.098;6.596;2022-11-04T04:03:16;10.90;99.90
52859;DHT22;38721;53.098;6.596;2022-11-04T04:05:50;10.90;99.90
52859;DHT22;38721;53.098;6.596;2022-11-04T04:08:42;11.00;99.90
52859;DHT22;38721;53.098;6.596;2022-11-04T04:17:24;10.90;99.90
52859;DHT22;38721;53.098;6.596;2022-11-04T04:20:03;10.90;99.90
52859;DHT22;38721;53.098;6.596;2022-11-04T04:22:38;10.90;99.90
52859;DHT22;38721;53.098;6.596;2022-11-04T04:25:09;10.90;99.90
52859;DHT22;38721;53.098;6.596;2022-11-04T04:27:57;10.90;99.90
52859;DHT22;38721;53.098;6.596;2022-11-04T04:30:25;10.80;99.90
52859;DHT22;38721;53.098;6.596;2022-11-04T04:32:57;10.90;99.90
52859;DHT22;38721;53.098;6.596;2022-11-04T04:35:29;10.90;99.90
52859;DHT22;38721;53.098;6.596;2022-11-04T04:41:29;10.90;99.90
52859;DHT22;38721;53.098;6.596;2022-11-04T04:44:25;10.90;99.90
52859;DHT22;38721;53.098;6.596;2022-11-04T04:47:14;10.90;99.90
52859;DHT22;38721;53.098;6.596;2022-11-04T04:49:58;10.80;99.90
52859;DHT22;38721;53.098;6.596;2022-11-04T04:52:27;10.70;99.90
52859;DHT22;38721;53.098;6.596;2022-11-04T04:54:54;10.70;99.90
52859;DHT22;38721;53.098;6.596;2022-11-04T04:57:20;10.60;99.90
52859;DHT22;38721;53.098;6.596;2022-11-04T04:59:45;10.60;99.90
52859;DHT22;38721;53.098;6.596;2022-11-04T05:02:11;10.50;99.90
52859;DHT22;38721;53.098;6.596;2022-11-04T05:04:37;10.60;99.90
52859;DHT22;38721;53.098;6.596;2022-11-04T05:07:03;10.50;99.90
52859;DHT22;38721;53.098;6.596;2022-11-04T05:09:28;10.50;99.90
52859;DHT22;38721;53.098;6.596;2022-11-04T05:11:57;10.50;99.90
52859;DHT22;38721;53.098;6.596;2022-11-04T05:14:22;10.40;99.90
52859;DHT22;38721;53.098;6.596;2022-11-04T05:16:48;10.30;99.90
52859;DHT22;38721;53.098;6.596;2022-11-04T05:19:14;10.20;99.90
52859;DHT22;38721;53.098;6.596;2022-11-04T05:21:39;10.30;99.90
52859;DHT22;38721;53.098;6.596;2022-11-04T05:24:05;10.10;99.90
52859;DHT22;38721;53.098;6.596;2022-11-04T05:26:31;10.10;99.90
52859;DHT22;38721;53.098;6.596;2022-11-04T05:28:56;10.10;99.90
52859;DHT22;38721;53.098;6.596;2022-11-04T05:31:25;10.10;99.90
52859;DHT22;38721;53.098;6.596;2022-11-04T05:33:52;10.00;99.90
52859;DHT22;38721;53.098;6.596;2022-11-04T05:36:18;10.00;99.90
52859;DHT22;38721;53.098;6.596;2022-11-04T05:38:49;10.00;99.90
52859;DHT22;38721;53.098;6.596;2022-11-04T05:41:15;10.10;99.90
52859;DHT22;38721;53.098;6.596;2022-11-04T05:43:54;10.00;99.90
52859;DHT22;38721;53.098;6.596;2022-11-04T05:46:21;10.10;99.90
52859;DHT22;38721;53.098;6.596;2022-11-04T05:48:46;10.00;99.90
52859;DHT22;38721;53.098;6.596;2022-11-04T05:51:14;10.10;99.90
52859;DHT22;38721;53.098;6.596;2022-11-04T05:53:40;10.00;99.90
52859;DHT22;38721;53.098;6.596;2022-11-04T05:56:06;10.00;99.90
52859;DHT22;38721;53.098;6.596;2022-11-04T05:58:33;10.00;99.90
52859;DHT22;38721;53.098;6.596;2022-11-04T06:03:37;9.90;99.90
52859;DHT22;38721;53.098;6.596;2022-11-04T06:06:05;10.00;99.90
52859;DHT22;38721;53.098;6.596;2022-11-04T06:08:31;10.00;99.90
52859;DHT22;38721;53.098;6.596;2022-11-04T06:10:57;9.80;99.90
52859;DHT22;38721;53.098;6.596;2022-11-04T06:13:22;9.80;99.90
52859;DHT22;38721;53.098;6.596;2022-11-04T06:15:48;9.80;99.90
52859;DHT22;38721;53.098;6.596;2022-11-04T06:18:13;9.80;99.90
52859;DHT22;38721;53.098;6.596;2022-11-04T06:20:39;9.70;99.90
52859;DHT22;38721;53.098;6.596;2022-11-04T06:23:05;9.70;99.90
52859;DHT22;38721;53.098;6.596;2022-11-04T06:25:33;9.70;99.90
52859;DHT22;38721;53.098;6.596;2022-11-04T06:27:59;9.70;99.90
52859;DHT22;38721;53.098;6.596;2022-11-04T06:30:24;9.60;99.90
52859;DHT22;38721;53.098;6.596;2022-11-04T06:32:50;9.60;99.90
52859;DHT22;38721;53.098;6.596;2022-11-04T06:35:15;9.60;99.90
52859;DHT22;38721;53.098;6.596;2022-11-04T06:37:41;9.60;99.90
52859;DHT22;38721;53.098;6.596;2022-11-04T06:40:07;9.70;99.90
52859;DHT22;38721;53.098;6.596;2022-11-04T06:42:33;9.60;99.90
52859;DHT22;38721;53.098;6.596;2022-11-04T06:44:59;9.50;99.90
52859;DHT22;38721;53.098;6.596;2022-11-04T06:47:24;9.50;99.90
52859;DHT22;38721;53.098;6.596;2022-11-04T06:49:50;9.50;99.90
52859;DHT22;38721;53.098;6.596;2022-11-04T06:52:15;9.50;99.90
52859;DHT22;38721;53.098;6.596;2022-11-04T06:54:41;9.50;99.90
52859;DHT22;38721;53.098;6.596;2022-11-04T06:57:09;9.40;99.90
52859;DHT22;38721;53.098;6.596;2022-11-04T06:59:36;9.50;99.90
52859;DHT22;38721;53.098;6.596;2022-11-04T07:02:01;9.40;99.90
52859;DHT22;38721;53.098;6.596;2022-11-04T07:04:30;9.40;99.90
52859;DHT22;38721;53.098;6.596;2022-11-04T07:06:55;9.30;99.90
52859;DHT22;38721;53.098;6.596;2022-11-04T07:09:21;9.40;99.90
52859;DHT22;38721;53.098;6.596;2022-11-04T07:11:46;9.40;99.90
52859;DHT22;38721;53.098;6.596;2022-11-04T07:14:13;9.20;99.90
52859;DHT22;38721;53.098;6.596;2022-11-04T07:16:39;9.30;99.90
52859;DHT22;38721;53.098;6.596;2022-11-04T07:19:05;9.30;99.90
52859;DHT22;38721;53.098;6.596;2022-11-04T07:21:33;9.30;99.90
52859;DHT22;38721;53.098;6.596;2022-11-04T07:24:00;9.30;99.90
52859;DHT22;38721;53.098;6.596;2022-11-04T07:26:26;9.20;99.90
52859;DHT22;38721;53.098;6.596;2022-11-04T07:28:51;9.20;99.90
52859;DHT22;38721;53.098;6.596;2022-11-04T07:31:18;9.20;99.90
52859;DHT22;38721;53.098;6.596;2022-11-04T07:33:44;9.20;99.90
52859;DHT22;38721;53.098;6.596;2022-11-04T07:36:14;9.20;99.90
52859;DHT22;38721;53.098;6.596;2022-11-04T07:38:41;9.20;99.90
52859;DHT22;38721;53.098;6.596;2022-11-04T07:41:07;9.30;99.90
52859;DHT22;38721;53.098;6.596;2022-11-04T07:43:33;9.30;99.90
52859;DHT22;38721;53.098;6.596;2022-11-04T07:46:05;9.40;99.90
52859;DHT22;38721;53.098;6.596;2022-11-04T07:48:31;9.50;99.90
52859;DHT22;38721;53.098;6.596;2022-11-04T07:51:00;9.50;99.90
52859;DHT22;38721;53.098;6.596;2022-11-04T07:53:27;9.50;99.90
52859;DHT22;38721;53.098;6.596;2022-11-04T07:55:53;9.60;99.90
52859;DHT22;38721;53.098;6.596;2022-11-04T07:58:22;9.60;99.90
52859;DHT22;38721;53.098;6.596;2022-11-04T08:00:48;9.70;99.90
52859;DHT22;38721;53.098;6.596;2022-11-04T08:03:14;9.70;99.90
52859;DHT22;38721;53.098;6.596;2022-11-04T08:05:40;9.80;99.90
52859;DHT22;38721;53.098;6.596;2022-11-04T08:08:05;9.80;99.90
52859;DHT22;38721;53.098;6.596;2022-11-04T08:10:38;9.90;99.90
52859;DHT22;38721;53.098;6.596;2022-11-04T08:13:04;9.90;99.90
52859;DHT22;38721;53.098;6.596;2022-11-04T08:15:30;9.90;99.90
52859;DHT22;38721;53.098;6.596;2022-11-04T08:17:56;10.00;99.90
52859;DHT22;38721;53.098;6.596;2022-11-04T08:20:21;10.10;99.90
52859;DHT22;38721;53.098;6.596;2022-11-04T08:22:47;10.00;99.90
52859;DHT22;38721;53.098;6.596;2022-11-04T08:25:12;10.20;99.90
52859;DHT22;38721;53.098;6.596;2022-11-04T08:27:41;10.10;99.90
52859;DHT22;38721;53.098;6.596;2022-11-04T08:30:07;10.20;99.90
52859;DHT22;38721;53.098;6.596;2022-11-04T08:32:33;10.30;99.90
52859;DHT22;38721;53.098;6.596;2022-11-04T08:34:59;10.30;99.90
52859;DHT22;38721;53.098;6.596;2022-11-04T08:37:26;10.40;99.90
52859;DHT22;38721;53.098;6.596;2022-11-04T08:39:51;10.30;99.90
52859;DHT22;38721;53.098;6.596;2022-11-04T08:42:17;10.40;99.90
52859;DHT22;38721;53.098;6.596;2022-11-04T08:44:50;10.50;99.90
52859;DHT22;38721;53.098;6.596;2022-11-04T08:47:15;10.50;99.90
52859;DHT22;38721;53.098;6.596;2022-11-04T08:49:41;10.60;99.90
52859;DHT22;38721;53.098;6.596;2022-11-04T08:52:07;10.50;99.90
52859;DHT22;38721;53.098;6.596;2022-11-04T08:54:34;10.60;99.90
52859;DHT22;38721;53.098;6.596;2022-11-04T08:57:00;10.70;99.90
52859;DHT22;38721;53.098;6.596;2022-11-04T08:59:26;10.70;99.90
52859;DHT22;38721;53.098;6.596;2022-11-04T09:01:52;10.70;99.90
52859;DHT22;38721;53.098;6.596;2022-11-04T09:04:18;10.70;99.90
52859;DHT22;38721;53.098;6.596;2022-11-04T09:06:44;10.70;99.90
52859;DHT22;38721;53.098;6.596;2022-11-04T09:09:13;10.80;99.90
52859;DHT22;38721;53.098;6.596;2022-11-04T09:11:41;10.80;99.90
52859;DHT22;38721;53.098;6.596;2022-11-04T09:14:07;10.80;99.90
52859;DHT22;38721;53.098;6.596;2022-11-04T09:16:34;10.90;99.90
52859;DHT22;38721;53.098;6.596;2022-11-04T09:19:00;10.90;99.90
52859;DHT22;38721;53.098;6.596;2022-11-04T09:21:26;10.90;99.90
52859;DHT22;38721;53.098;6.596;2022-11-04T09:23:52;11.00;99.90
52859;DHT22;38721;53.098;6.596;2022-11-04T09:26:19;10.90;99.90
52859;DHT22;38721;53.098;6.596;2022-11-04T09:28:45;11.00;99.90
52859;DHT22;38721;53.098;6.596;2022-11-04T09:31:14;11.00;99.90
52859;DHT22;38721;53.098;6.596;2022-11-04T09:33:40;11.10;99.90
52859;DHT22;38721;53.098;6.596;2022-11-04T09:36:06;11.20;99.90
52859;DHT22;38721;53.098;6.596;2022-11-04T09:38:33;11.30;99.90
52859;DHT22;38721;53.098;6.596;2022-11-04T09:41:00;11.30;99.90
52859;DHT22;38721;53.098;6.596;2022-11-04T09:43:48;11.30;99.90
52859;DHT22;38721;53.098;6.596;2022-11-04T09:46:16;11.40;99.90
52859;DHT22;38721;53.098;6.596;2022-11-04T09:48:50;11.50;99.90
52859;DHT22;38721;53.098;6.596;2022-11-04T09:51:20;11.40;99.90
52859;DHT22;38721;53.098;6.596;2022-11-04T09:53:56;11.50;99.90
52859;DHT22;38721;53.098;6.596;2022-11-04T09:56:34;11.60;99.90
52859;DHT22;38721;53.098;6.596;2022-11-04T09:59:02;11.60;99.90
52859;DHT22;38721;53.098;6.596;2022-11-04T10:01:55;11.70;99.90
52859;DHT22;38721;53.098;6.596;2022-11-04T10:16:02;11.90;99.90
52859;DHT22;38721;53.098;6.596;2022-11-04T10:18:47;12.00;99.90
52859;DHT22;38721;53.098;6.596;2022-11-04T10:27:04;12.00;99.90
52859;DHT22;38721;53.098;6.596;2022-11-04T10:29:42;12.10;99.90
52859;DHT22;38721;53.098;6.596;2022-11-04T10:32:48;12.30;99.90
52859;DHT22;38721;53.098;6.596;2022-11-04T10:35:36;12.20;99.90
52859;DHT22;38721;53.098;6.596;2022-11-04T10:38:14;12.40;99.90
52859;DHT22;38721;53.098;6.596;2022-11-04T10:40:45;12.50;99.90
52859;DHT22;38721;53.098;6.596;2022-11-04T10:43:16;12.50;99.90
52859;DHT22;38721;53.098;6.596;2022-11-04T10:46:06;12.30;99.90
52859;DHT22;38721;53.098;6.596;2022-11-04T10:51:51;12.40;99.90
52859;DHT22;38721;53.098;6.596;2022-11-04T10:54:21;12.40;99.90
52859;DHT22;38721;53.098;6.596;2022-11-04T10:56:54;12.40;99.90
52859;DHT22;38721;53.098;6.596;2022-11-04T10:59:29;12.50;99.90
52859;DHT22;38721;53.098;6.596;2022-11-04T11:02:01;12.60;99.90
52859;DHT22;38721;53.098;6.596;2022-11-04T11:04:28;12.70;99.90
52859;DHT22;38721;53.098;6.596;2022-11-04T11:06:56;12.80;99.90
52859;DHT22;38721;53.098;6.596;2022-11-04T11:12:05;13.20;99.90
52859;DHT22;38721;53.098;6.596;2022-11-04T11:14:42;13.20;99.90
52859;DHT22;38721;53.098;6.596;2022-11-04T11:19:59;13.30;99.90
52859;DHT22;38721;53.098;6.596;2022-11-04T11:22:43;13.50;99.90
52859;DHT22;38721;53.098;6.596;2022-11-04T11:30:30;13.60;40.10
52859;DHT22;38721;53.098;6.596;2022-11-04T11:33:02;13.80;89.20
52859;DHT22;38721;53.098;6.596;2022-11-04T11:35:32;14.10;99.90
52859;DHT22;38721;53.098;6.596;2022-11-04T11:38:00;13.90;76.50
52859;DHT22;38721;53.098;6.596;2022-11-04T11:40:31;14.10;99.90
52859;DHT22;38721;53.098;6.596;2022-11-04T11:42:59;13.90;99.90
52859;DHT22;38721;53.098;6.596;2022-11-04T11:45:26;13.70;99.90
52859;DHT22;38721;53.098;6.596;2022-11-04T11:47:53;13.50;99.90
52859;DHT22;38721;53.098;6.596;2022-11-04T11:50:26;13.40;99.90
52859;DHT22;38721;53.098;6.596;2022-11-04T11:53:15;13.40;99.90
52859;DHT22;38721;53.098;6.596;2022-11-04T11:55:50;13.40;1.00
52859;DHT22;38721;53.098;6.596;2022-11-04T11:58:34;13.20;99.90
52859;DHT22;38721;53.098;6.596;2022-11-04T12:01:15;12.90;99.90
52859;DHT22;38721;53.098;6.596;2022-11-04T12:03:47;12.80;99.90
52859;DHT22;38721;53.098;6.596;2022-11-04T12:09:09;12.70;1.00
52859;DHT22;38721;53.098;6.596;2022-11-04T12:11:43;12.60;1.00
52859;DHT22;38721;53.098;6.596;2022-11-04T12:22:43;12.20;1.00
52859;DHT22;38721;53.098;6.596;2022-11-04T12:30:20;12.30;35.00
52859;DHT22;38721;53.098;6.596;2022-11-04T13:00:24;12.10;99.90
52859;DHT22;38721;53.098;6.596;2022-11-04T13:03:00;12.10;99.90
52859;DHT22;38721;53.098;6.596;2022-11-04T13:05:57;12.00;1.00
52859;DHT22;38721;53.098;6.596;2022-11-04T13:08:48;12.00;49.20
52859;DHT22;38721;53.098;6.596;2022-11-04T13:11:24;12.00;99.90
52859;DHT22;38721;53.098;6.596;2022-11-04T13:14:15;12.00;99.90
52859;DHT22;38721;53.098;6.596;2022-11-04T13:16:46;12.00;99.90
52859;DHT22;38721;53.098;6.596;2022-11-04T13:19:25;12.10;99.90
52859;DHT22;38721;53.098;6.596;2022-11-04T13:21:54;12.30;1.00
52859;DHT22;38721;53.098;6.596;2022-11-04T13:24:30;12.50;99.90
52859;DHT22;38721;53.098;6.596;2022-11-04T13:27:00;12.70;13.80
52859;DHT22;38721;53.098;6.596;2022-11-04T13:29:29;12.80;1.00
52859;DHT22;38721;53.098;6.596;2022-11-04T13:32:12;12.90;1.00
52859;DHT22;38721;53.098;6.596;2022-11-04T13:43:33;13.40;99.90
52859;DHT22;38721;53.098;6.596;2022-11-04T13:46:26;13.50;99.90
52859;DHT22;38721;53.098;6.596;2022-11-04T13:48:59;13.80;99.90
52859;DHT22;38721;53.098;6.596;2022-11-04T13:51:35;14.30;99.90
52859;DHT22;38721;53.098;6.596;2022-11-04T13:54:02;14.40;1.00
52859;DHT22;38721;53.098;6.596;2022-11-04T13:56:39;14.60;99.90
52859;DHT22;38721;53.098;6.596;2022-11-04T13:59:24;14.70;1.00
52859;DHT22;38721;53.098;6.596;2022-11-04T14:04:36;14.80;99.90
52859;DHT22;38721;53.098;6.596;2022-11-04T14:07:04;14.20;99.90
52859;DHT22;38721;53.098;6.596;2022-11-04T14:14:48;14.00;99.90
52859;DHT22;38721;53.098;6.596;2022-11-04T14:25:38;14.40;99.90
52859;DHT22;38721;53.098;6.596;2022-11-04T14:33:40;15.30;99.90
52859;DHT22;38721;53.098;6.596;2022-11-04T14:36:34;15.10;99.90
52859;DHT22;38721;53.098;6.596;2022-11-04T14:41:58;14.40;1.00
52859;DHT22;38721;53.098;6.596;2022-11-04T14:44:46;14.40;99.90
52859;DHT22;38721;53.098;6.596;2022-11-04T14:50:05;14.30;1.00
52859;DHT22;38721;53.098;6.596;2022-11-04T14:52:34;14.10;99.90
52859;DHT22;38721;53.098;6.596;2022-11-04T14:57:44;13.40;99.90
52859;DHT22;38721;53.098;6.596;2022-11-04T15:05:33;12.70;51.50
52859;DHT22;38721;53.098;6.596;2022-11-04T15:08:29;12.40;99.90
52859;DHT22;38721;53.098;6.596;2022-11-04T15:16:28;12.20;1.00
52859;DHT22;38721;53.098;6.596;2022-11-04T15:18:57;12.10;1.00
52859;DHT22;38721;53.098;6.596;2022-11-04T15:21:24;12.10;1.00
52859;DHT22;38721;53.098;6.596;2022-11-04T15:23:53;12.00;99.90
52859;DHT22;38721;53.098;6.596;2022-11-04T15:28:46;11.80;99.90
52859;DHT22;38721;53.098;6.596;2022-11-04T15:31:14;11.80;99.90
52859;DHT22;38721;53.098;6.596;2022-11-04T15:33:49;11.70;1.00
52859;DHT22;38721;53.098;6.596;2022-11-04T15:36:34;11.60;1.00
52859;DHT22;38721;53.098;6.596;2022-11-04T15:41:40;11.40;55.60
52859;DHT22;38721;53.098;6.596;2022-11-04T15:44:27;11.30;99.90
52859;DHT22;38721;53.098;6.596;2022-11-04T15:46:59;11.20;99.90
52859;DHT22;38721;53.098;6.596;2022-11-04T15:49:30;11.20;99.90
52859;DHT22;38721;53.098;6.596;2022-11-04T15:52:07;11.10;1.00
52859;DHT22;38721;53.098;6.596;2022-11-04T15:54:47;11.00;24.50
52859;DHT22;38721;53.098;6.596;2022-11-04T15:57:15;10.80;99.90
52859;DHT22;38721;53.098;6.596;2022-11-04T16:00:05;10.70;99.90
52859;DHT22;38721;53.098;6.596;2022-11-04T16:02:46;10.50;99.90
52859;DHT22;38721;53.098;6.596;2022-11-04T16:05:27;10.40;99.90
52859;DHT22;38721;53.098;6.596;2022-11-04T16:08:39;10.40;72.30
52859;DHT22;38721;53.098;6.596;2022-11-04T16:10:40;10.40;99.90
52859;DHT22;38721;53.098;6.596;2022-11-04T16:13:23;10.40;99.90
52859;DHT22;38721;53.098;6.596;2022-11-04T16:18:29;10.20;99.90
52859;DHT22;38721;53.098;6.596;2022-11-04T16:21:01;10.10;99.90
52859;DHT22;38721;53.098;6.596;2022-11-04T16:23:28;10.00;99.90
52859;DHT22;38721;53.098;6.596;2022-11-04T16:25:59;10.00;99.90
52859;DHT22;38721;53.098;6.596;2022-11-04T16:28:32;9.90;99.90
52859;DHT22;38721;53.098;6.596;2022-11-04T16:31:02;9.90;99.90
52859;DHT22;38721;53.098;6.596;2022-11-04T16:33:28;9.70;99.90
52859;DHT22;38721;53.098;6.596;2022-11-04T16:35:54;9.70;99.90
52859;DHT22;38721;53.098;6.596;2022-11-04T16:38:23;9.60;99.90
52859;DHT22;38721;53.098;6.596;2022-11-04T16:40:49;9.50;99.90
52859;DHT22;38721;53.098;6.596;2022-11-04T16:43:19;9.50;99.90
52859;DHT22;38721;53.098;6.596;2022-11-04T16:45:47;9.40;99.90
52859;DHT22;38721;53.098;6.596;2022-11-04T16:48:16;9.40;99.90
52859;DHT22;38721;53.098;6.596;2022-11-04T16:50:42;9.40;99.90
52859;DHT22;38721;53.098;6.596;2022-11-04T16:53:08;9.30;99.90
52859;DHT22;38721;53.098;6.596;2022-11-04T16:55:34;9.30;99.90
52859;DHT22;38721;53.098;6.596;2022-11-04T16:58:02;9.30;99.90
52859;DHT22;38721;53.098;6.596;2022-11-04T17:00:32;9.20;99.90
52859;DHT22;38721;53.098;6.596;2022-11-04T17:03:11;9.20;99.90
52859;DHT22;38721;53.098;6.596;2022-11-04T17:05:38;9.20;99.90
52859;DHT22;38721;53.098;6.596;2022-11-04T17:08:04;9.10;99.90
52859;DHT22;38721;53.098;6.596;2022-11-04T17:10:33;9.10;99.90
52859;DHT22;38721;53.098;6.596;2022-11-04T17:13:01;9.10;99.90
52859;DHT22;38721;53.098;6.596;2022-11-04T17:15:36;9.00;99.90
52859;DHT22;38721;53.098;6.596;2022-11-04T17:18:37;9.00;99.90
52859;DHT22;38721;53.098;6.596;2022-11-04T17:21:27;8.90;99.90
52859;DHT22;38721;53.098;6.596;2022-11-04T17:24:31;8.90;99.90
52859;DHT22;38721;53.098;6.596;2022-11-04T17:26:57;8.80;99.90
52859;DHT22;38721;53.098;6.596;2022-11-04T17:29:23;8.80;99.90
52859;DHT22;38721;53.098;6.596;2022-11-04T17:31:49;8.70;99.90
52859;DHT22;38721;53.098;6.596;2022-11-04T17:34:14;8.70;99.90
52859;DHT22;38721;53.098;6.596;2022-11-04T17:36:40;8.70;99.90
52859;DHT22;38721;53.098;6.596;2022-11-04T17:39:06;8.60;99.90
52859;DHT22;38721;53.098;6.596;2022-11-04T17:41:32;8.70;99.90
52859;DHT22;38721;53.098;6.596;2022-11-04T17:44:16;8.60;99.90
52859;DHT22;38721;53.098;6.596;2022-11-04T17:46:41;8.50;99.90
52859;DHT22;38721;53.098;6.596;2022-11-04T17:49:15;8.50;99.90
52859;DHT22;38721;53.098;6.596;2022-11-04T17:51:44;8.50;99.90
52859;DHT22;38721;53.098;6.596;2022-11-04T17:54:16;8.50;99.90
52859;DHT22;38721;53.098;6.596;2022-11-04T17:56:42;8.50;99.90
52859;DHT22;38721;53.098;6.596;2022-11-04T17:59:09;8.50;99.90
52859;DHT22;38721;53.098;6.596;2022-11-04T18:01:37;8.40;99.90
52859;DHT22;38721;53.098;6.596;2022-11-04T18:04:04;8.40;99.90
52859;DHT22;38721;53.098;6.596;2022-11-04T18:06:31;8.30;99.90
52859;DHT22;38721;53.098;6.596;2022-11-04T18:08:57;8.30;99.90
52859;DHT22;38721;53.098;6.596;2022-11-04T18:11:26;8.30;99.90
52859;DHT22;38721;53.098;6.596;2022-11-04T18:14:12;8.30;99.90
52859;DHT22;38721;53.098;6.596;2022-11-04T18:16:42;8.30;99.90
52859;DHT22;38721;53.098;6.596;2022-11-04T18:19:12;8.30;99.90
52859;DHT22;38721;53.098;6.596;2022-11-04T18:21:38;8.30;99.90
52859;DHT22;38721;53.098;6.596;2022-11-04T18:24:04;8.30;99.90
52859;DHT22;38721;53.098;6.596;2022-11-04T18:26:30;8.20;99.90
52859;DHT22;38721;53.098;6.596;2022-11-04T18:28:55;8.10;99.90
52859;DHT22;38721;53.098;6.596;2022-11-04T18:31:32;8.10;99.90
52859;DHT22;38721;53.098;6.596;2022-11-04T18:34:00;8.10;99.90
52859;DHT22;38721;53.098;6.596;2022-11-04T18:36:27;8.00;99.90
52859;DHT22;38721;53.098;6.596;2022-11-04T18:38:53;8.00;99.90
52859;DHT22;38721;53.098;6.596;2022-11-04T18:41:19;8.00;99.90
52859;DHT22;38721;53.098;6.596;2022-11-04T18:43:45;7.90;99.90
52859;DHT22;38721;53.098;6.596;2022-11-04T18:46:13;7.90;99.90
52859;DHT22;38721;53.098;6.596;2022-11-04T18:48:40;7.90;99.90
52859;DHT22;38721;53.098;6.596;2022-11-04T18:51:07;7.90;99.90
52859;DHT22;38721;53.098;6.596;2022-11-04T18:53:34;7.90;99.90
52859;DHT22;38721;53.098;6.596;2022-11-04T18:56:08;8.10;99.90